sensor_id;sensor_type;location;lat;lon;timestamp;P1;durP1;ratioP1;P2;durP2;ratioP2
22230;SDS011;11284;48.086;-1.652;2023-05-15T00:00:54;12.60;;;10.57;;
22230;SDS011;11284;48.086;-1.652;2023-05-15T00:03:20;13.10;;;10.48;;
22230;SDS011;11284;48.086;-1.652;2023-05-15T00:05:46;15.35;;;10.18;;
22230;SDS011;11284;48.086;-1.652;2023-05-15T00:08:12;12.40;;;10.50;;
22230;SDS011;11284;48.086;-1.652;2023-05-15T00:10:38;15.23;;;10.20;;
22230;SDS011;11284;48.086;-1.652;2023-05-15T00:13:04;14.55;;;10.30;;
22230;SDS011;11284;48.086;-1.652;2023-05-15T00:15:30;12.23;;;10.20;;
22230;SDS011;11284;48.086;-1.652;2023-05-15T00:17:56;12.82;;;10.52;;
22230;SDS011;11284;48.086;-1.652;2023-05-15T00:20:22;12.85;;;9.90;;
22230;SDS011;11284;48.086;-1.652;2023-05-15T00:22:48;14.65;;;10.38;;
22230;SDS011;11284;48.086;-1.652;2023-05-15T00:25:14;13.05;;;10.27;;
22230;SDS011;11284;48.086;-1.652;2023-05-15T00:27:40;15.63;;;10.73;;
22230;SDS011;11284;48.086;-1.652;2023-05-15T00:30:06;13.57;;;10.45;;
22230;SDS011;11284;48.086;-1.652;2023-05-15T00:32:32;14.40;;;10.93;;
22230;SDS011;11284;48.086;-1.652;2023-05-15T00:34:58;15.15;;;10.27;;
22230;SDS011;11284;48.086;-1.652;2023-05-15T00:37:24;12.93;;;10.38;;
22230;SDS011;11284;48.086;-1.652;2023-05-15T00:39:50;13.13;;;10.45;;
22230;SDS011;11284;48.086;-1.652;2023-05-15T00:42:16;12.60;;;10.13;;
22230;SDS011;11284;48.086;-1.652;2023-05-15T00:44:43;14.20;;;10.60;;
22230;SDS011;11284;48.086;-1.652;2023-05-15T00:47:09;12.20;;;10.02;;
22230;SDS011;11284;48.086;-1.652;2023-05-15T00:49:36;14.30;;;10.25;;
22230;SDS011;11284;48.086;-1.652;2023-05-15T00:52:02;14.77;;;10.57;;
22230;SDS011;11284;48.086;-1.652;2023-05-15T00:54:29;13.10;;;10.95;;
22230;SDS011;11284;48.086;-1.652;2023-05-15T00:56:55;14.35;;;10.85;;
22230;SDS011;11284;48.086;-1.652;2023-05-15T00:59:25;13.73;;;10.18;;
22230;SDS011;11284;48.086;-1.652;2023-05-15T01:01:52;13.25;;;10.30;;
22230;SDS011;11284;48.086;-1.652;2023-05-15T01:04:18;13.20;;;11.23;;
22230;SDS011;11284;48.086;-1.652;2023-05-15T01:06:44;13.90;;;10.77;;
22230;SDS011;11284;48.086;-1.652;2023-05-15T01:09:12;15.25;;;10.85;;
22230;SDS011;11284;48.086;-1.652;2023-05-15T01:11:39;13.18;;;11.07;;
22230;SDS011;11284;48.086;-1.652;2023-05-15T01:14:07;14.27;;;10.68;;
22230;SDS011;11284;48.086;-1.652;2023-05-15T01:16:33;15.70;;;11.77;;
22230;SDS011;11284;48.086;-1.652;2023-05-15T01:19:00;14.85;;;11.23;;
22230;SDS011;11284;48.086;-1.652;2023-05-15T01:21:33;14.77;;;11.55;;
22230;SDS011;11284;48.086;-1.652;2023-05-15T01:32:08;14.60;;;11.98;;
22230;SDS011;11284;48.086;-1.652;2023-05-15T01:34:42;16.13;;;12.70;;
22230;SDS011;11284;48.086;-1.652;2023-05-15T01:37:10;17.52;;;13.23;;
22230;SDS011;11284;48.086;-1.652;2023-05-15T01:39:37;16.60;;;12.70;;
22230;SDS011;11284;48.086;-1.652;2023-05-15T01:42:08;16.90;;;13.07;;
22230;SDS011;11284;48.086;-1.652;2023-05-15T01:44:35;16.35;;;12.55;;
22230;SDS011;11284;48.086;-1.652;2023-05-15T01:47:03;18.10;;;12.48;;
22230;SDS011;11284;48.086;-1.652;2023-05-15T01:49:31;15.05;;;12.32;;
22230;SDS011;11284;48.086;-1.652;2023-05-15T01:51:59;15.80;;;12.65;;
22230;SDS011;11284;48.086;-1.652;2023-05-15T01:54:26;16.35;;;12.55;;
22230;SDS011;11284;48.086;-1.652;2023-05-15T01:56:53;16.05;;;12.88;;
22230;SDS011;11284;48.086;-1.652;2023-05-15T01:59:20;15.38;;;12.68;;
22230;SDS011;11284;48.086;-1.652;2023-05-15T02:01:46;14.70;;;12.38;;
22230;SDS011;11284;48.086;-1.652;2023-05-15T02:04:13;17.65;;;12.70;;
22230;SDS011;11284;48.086;-1.652;2023-05-15T02:06:39;15.60;;;12.82;;
22230;SDS011;11284;48.086;-1.652;2023-05-15T02:09:05;15.82;;;12.25;;
22230;SDS011;11284;48.086;-1.652;2023-05-15T02:11:32;16.33;;;12.00;;
22230;SDS011;11284;48.086;-1.652;2023-05-15T02:13:58;16.20;;;12.55;;
22230;SDS011;11284;48.086;-1.652;2023-05-15T02:16:25;15.20;;;12.00;;
22230;SDS011;11284;48.086;-1.652;2023-05-15T02:18:51;18.27;;;13.20;;
22230;SDS011;11284;48.086;-1.652;2023-05-15T02:21:18;16.33;;;12.75;;
22230;SDS011;11284;48.086;-1.652;2023-05-15T02:23:44;16.17;;;13.27;;
22230;SDS011;11284;48.086;-1.652;2023-05-15T02:26:23;17.27;;;13.60;;
22230;SDS011;11284;48.086;-1.652;2023-05-15T02:31:30;19.33;;;13.35;;
22230;SDS011;11284;48.086;-1.652;2023-05-15T02:36:32;16.02;;;12.68;;
22230;SDS011;11284;48.086;-1.652;2023-05-15T02:39:01;15.30;;;13.02;;
22230;SDS011;11284;48.086;-1.652;2023-05-15T02:41:27;16.15;;;13.23;;
22230;SDS011;11284;48.086;-1.652;2023-05-15T02:43:56;17.88;;;13.20;;
22230;SDS011;11284;48.086;-1.652;2023-05-15T02:46:24;16.73;;;12.75;;
22230;SDS011;11284;48.086;-1.652;2023-05-15T02:48:50;17.92;;;13.38;;
22230;SDS011;11284;48.086;-1.652;2023-05-15T02:51:17;15.32;;;12.30;;
22230;SDS011;11284;48.086;-1.652;2023-05-15T02:53:43;16.00;;;13.10;;
22230;SDS011;11284;48.086;-1.652;2023-05-15T02:56:09;16.35;;;13.25;;
22230;SDS011;11284;48.086;-1.652;2023-05-15T02:58:35;16.52;;;13.23;;
22230;SDS011;11284;48.086;-1.652;2023-05-15T03:01:02;16.27;;;12.98;;
22230;SDS011;11284;48.086;-1.652;2023-05-15T03:03:28;18.40;;;14.13;;
22230;SDS011;11284;48.086;-1.652;2023-05-15T03:05:54;15.27;;;12.82;;
22230;SDS011;11284;48.086;-1.652;2023-05-15T03:08:20;17.55;;;13.23;;
22230;SDS011;11284;48.086;-1.652;2023-05-15T03:10:47;17.27;;;13.32;;
22230;SDS011;11284;48.086;-1.652;2023-05-15T03:13:13;15.98;;;12.90;;
22230;SDS011;11284;48.086;-1.652;2023-05-15T03:15:41;16.20;;;13.23;;
22230;SDS011;11284;48.086;-1.652;2023-05-15T03:18:08;17.55;;;12.38;;
22230;SDS011;11284;48.086;-1.652;2023-05-15T03:20:34;18.30;;;12.90;;
22230;SDS011;11284;48.086;-1.652;2023-05-15T03:23:00;16.95;;;13.57;;
22230;SDS011;11284;48.086;-1.652;2023-05-15T03:25:26;16.75;;;13.02;;
22230;SDS011;11284;48.086;-1.652;2023-05-15T03:27:52;16.58;;;13.15;;
22230;SDS011;11284;48.086;-1.652;2023-05-15T03:30:18;16.65;;;13.38;;
22230;SDS011;11284;48.086;-1.652;2023-05-15T03:32:44;17.02;;;14.20;;
22230;SDS011;11284;48.086;-1.652;2023-05-15T03:35:10;16.85;;;13.52;;
22230;SDS011;11284;48.086;-1.652;2023-05-15T03:37:36;18.23;;;14.60;;
22230;SDS011;11284;48.086;-1.652;2023-05-15T03:40:02;17.55;;;13.50;;
22230;SDS011;11284;48.086;-1.652;2023-05-15T03:42:28;18.08;;;14.50;;
22230;SDS011;11284;48.086;-1.652;2023-05-15T03:44:54;17.23;;;13.93;;
22230;SDS011;11284;48.086;-1.652;2023-05-15T03:47:20;19.48;;;14.15;;
22230;SDS011;11284;48.086;-1.652;2023-05-15T03:49:47;18.95;;;14.07;;
22230;SDS011;11284;48.086;-1.652;2023-05-15T03:52:13;19.38;;;15.48;;
22230;SDS011;11284;48.086;-1.652;2023-05-15T03:54:39;17.52;;;13.90;;
22230;SDS011;11284;48.086;-1.652;2023-05-15T03:57:05;19.38;;;14.88;;
22230;SDS011;11284;48.086;-1.652;2023-05-15T03:59:31;20.00;;;14.85;;
22230;SDS011;11284;48.086;-1.652;2023-05-15T04:01:57;19.75;;;14.90;;
22230;SDS011;11284;48.086;-1.652;2023-05-15T04:04:23;23.15;;;16.20;;
22230;SDS011;11284;48.086;-1.652;2023-05-15T04:06:49;18.52;;;15.57;;
22230;SDS011;11284;48.086;-1.652;2023-05-15T04:09:15;22.13;;;15.52;;
22230;SDS011;11284;48.086;-1.652;2023-05-15T04:11:41;20.88;;;15.55;;
22230;SDS011;11284;48.086;-1.652;2023-05-15T04:14:10;19.92;;;15.88;;
22230;SDS011;11284;48.086;-1.652;2023-05-15T04:16:36;18.95;;;15.52;;
22230;SDS011;11284;48.086;-1.652;2023-05-15T04:19:02;20.52;;;15.32;;
22230;SDS011;11284;48.086;-1.652;2023-05-15T04:21:28;19.05;;;15.32;;
22230;SDS011;11284;48.086;-1.652;2023-05-15T04:23:54;17.77;;;14.88;;
22230;SDS011;11284;48.086;-1.652;2023-05-15T04:26:20;18.85;;;15.02;;
22230;SDS011;11284;48.086;-1.652;2023-05-15T04:28:46;21.08;;;16.98;;
22230;SDS011;11284;48.086;-1.652;2023-05-15T04:31:12;18.85;;;14.70;;
22230;SDS011;11284;48.086;-1.652;2023-05-15T04:33:38;20.77;;;15.55;;
22230;SDS011;11284;48.086;-1.652;2023-05-15T04:36:05;19.40;;;14.88;;
22230;SDS011;11284;48.086;-1.652;2023-05-15T04:38:31;18.60;;;14.27;;
22230;SDS011;11284;48.086;-1.652;2023-05-15T04:40:57;18.98;;;14.57;;
22230;SDS011;11284;48.086;-1.652;2023-05-15T04:43:23;20.83;;;14.82;;
22230;SDS011;11284;48.086;-1.652;2023-05-15T04:45:49;20.85;;;15.15;;
22230;SDS011;11284;48.086;-1.652;2023-05-15T04:48:15;19.48;;;15.05;;
22230;SDS011;11284;48.086;-1.652;2023-05-15T04:50:43;19.13;;;14.52;;
22230;SDS011;11284;48.086;-1.652;2023-05-15T04:53:09;21.42;;;16.02;;
22230;SDS011;11284;48.086;-1.652;2023-05-15T04:55:35;18.45;;;14.90;;
22230;SDS011;11284;48.086;-1.652;2023-05-15T04:58:01;18.63;;;14.48;;
22230;SDS011;11284;48.086;-1.652;2023-05-15T05:00:27;18.85;;;14.23;;
22230;SDS011;11284;48.086;-1.652;2023-05-15T05:02:53;20.42;;;15.07;;
22230;SDS011;11284;48.086;-1.652;2023-05-15T05:05:20;18.55;;;14.48;;
22230;SDS011;11284;48.086;-1.652;2023-05-15T05:07:46;19.42;;;14.95;;
22230;SDS011;11284;48.086;-1.652;2023-05-15T05:10:12;18.80;;;15.40;;
22230;SDS011;11284;48.086;-1.652;2023-05-15T05:12:38;19.73;;;14.07;;
22230;SDS011;11284;48.086;-1.652;2023-05-15T05:15:04;20.77;;;14.85;;
22230;SDS011;11284;48.086;-1.652;2023-05-15T05:17:30;22.20;;;15.05;;
22230;SDS011;11284;48.086;-1.652;2023-05-15T05:19:56;19.35;;;14.18;;
22230;SDS011;11284;48.086;-1.652;2023-05-15T05:22:22;20.77;;;14.65;;
22230;SDS011;11284;48.086;-1.652;2023-05-15T05:24:48;17.80;;;13.90;;
22230;SDS011;11284;48.086;-1.652;2023-05-15T05:27:14;18.10;;;13.98;;
22230;SDS011;11284;48.086;-1.652;2023-05-15T05:29:40;18.20;;;14.07;;
22230;SDS011;11284;48.086;-1.652;2023-05-15T05:32:06;18.50;;;14.00;;
22230;SDS011;11284;48.086;-1.652;2023-05-15T05:34:32;18.02;;;14.13;;
22230;SDS011;11284;48.086;-1.652;2023-05-15T05:36:58;17.40;;;13.15;;
22230;SDS011;11284;48.086;-1.652;2023-05-15T05:39:24;18.42;;;13.18;;
22230;SDS011;11284;48.086;-1.652;2023-05-15T05:41:50;17.15;;;13.40;;
22230;SDS011;11284;48.086;-1.652;2023-05-15T05:44:16;17.15;;;13.30;;
22230;SDS011;11284;48.086;-1.652;2023-05-15T05:46:42;18.63;;;13.25;;
22230;SDS011;11284;48.086;-1.652;2023-05-15T05:49:09;16.55;;;13.15;;
22230;SDS011;11284;48.086;-1.652;2023-05-15T05:51:35;17.50;;;13.40;;
22230;SDS011;11284;48.086;-1.652;2023-05-15T05:54:02;17.08;;;12.63;;
22230;SDS011;11284;48.086;-1.652;2023-05-15T05:56:28;17.38;;;13.00;;
22230;SDS011;11284;48.086;-1.652;2023-05-15T05:58:54;16.08;;;12.52;;
22230;SDS011;11284;48.086;-1.652;2023-05-15T06:01:21;16.52;;;12.88;;
22230;SDS011;11284;48.086;-1.652;2023-05-15T06:03:47;16.70;;;12.52;;
22230;SDS011;11284;48.086;-1.652;2023-05-15T06:06:13;17.33;;;12.63;;
22230;SDS011;11284;48.086;-1.652;2023-05-15T06:08:39;15.90;;;12.27;;
22230;SDS011;11284;48.086;-1.652;2023-05-15T06:11:05;15.98;;;12.27;;
22230;SDS011;11284;48.086;-1.652;2023-05-15T06:13:31;17.15;;;12.45;;
22230;SDS011;11284;48.086;-1.652;2023-05-15T06:15:57;16.13;;;12.27;;
22230;SDS011;11284;48.086;-1.652;2023-05-15T06:18:23;14.98;;;11.43;;
22230;SDS011;11284;48.086;-1.652;2023-05-15T06:20:49;16.15;;;12.13;;
22230;SDS011;11284;48.086;-1.652;2023-05-15T06:23:15;14.35;;;12.07;;
22230;SDS011;11284;48.086;-1.652;2023-05-15T06:25:41;16.23;;;11.75;;
22230;SDS011;11284;48.086;-1.652;2023-05-15T06:28:07;15.93;;;12.05;;
22230;SDS011;11284;48.086;-1.652;2023-05-15T06:30:33;16.08;;;11.93;;
22230;SDS011;11284;48.086;-1.652;2023-05-15T06:32:59;17.77;;;13.05;;
22230;SDS011;11284;48.086;-1.652;2023-05-15T06:35:25;15.68;;;12.00;;
22230;SDS011;11284;48.086;-1.652;2023-05-15T06:37:51;16.55;;;12.00;;
22230;SDS011;11284;48.086;-1.652;2023-05-15T06:40:17;17.90;;;12.65;;
22230;SDS011;11284;48.086;-1.652;2023-05-15T06:42:43;14.35;;;11.00;;
22230;SDS011;11284;48.086;-1.652;2023-05-15T06:45:11;16.40;;;11.43;;
22230;SDS011;11284;48.086;-1.652;2023-05-15T06:47:37;16.98;;;10.90;;
22230;SDS011;11284;48.086;-1.652;2023-05-15T06:50:03;17.27;;;10.82;;
22230;SDS011;11284;48.086;-1.652;2023-05-15T06:52:29;14.10;;;10.65;;
22230;SDS011;11284;48.086;-1.652;2023-05-15T06:54:55;15.45;;;10.65;;
22230;SDS011;11284;48.086;-1.652;2023-05-15T06:57:21;14.55;;;10.73;;
22230;SDS011;11284;48.086;-1.652;2023-05-15T06:59:47;16.77;;;10.18;;
22230;SDS011;11284;48.086;-1.652;2023-05-15T07:02:13;15.50;;;11.13;;
22230;SDS011;11284;48.086;-1.652;2023-05-15T07:04:39;13.65;;;9.30;;
22230;SDS011;11284;48.086;-1.652;2023-05-15T07:07:05;12.23;;;9.85;;
22230;SDS011;11284;48.086;-1.652;2023-05-15T07:09:32;13.60;;;9.85;;
22230;SDS011;11284;48.086;-1.652;2023-05-15T07:11:59;13.63;;;10.00;;
22230;SDS011;11284;48.086;-1.652;2023-05-15T07:14:25;19.98;;;11.65;;
22230;SDS011;11284;48.086;-1.652;2023-05-15T07:16:51;17.30;;;10.35;;
22230;SDS011;11284;48.086;-1.652;2023-05-15T07:19:17;16.95;;;10.07;;
22230;SDS011;11284;48.086;-1.652;2023-05-15T07:21:45;11.65;;;9.40;;
22230;SDS011;11284;48.086;-1.652;2023-05-15T07:24:11;15.27;;;10.15;;
22230;SDS011;11284;48.086;-1.652;2023-05-15T07:26:37;13.80;;;9.73;;
22230;SDS011;11284;48.086;-1.652;2023-05-15T07:29:03;13.95;;;9.68;;
22230;SDS011;11284;48.086;-1.652;2023-05-15T07:31:29;13.77;;;10.13;;
22230;SDS011;11284;48.086;-1.652;2023-05-15T07:33:57;13.98;;;9.55;;
22230;SDS011;11284;48.086;-1.652;2023-05-15T07:36:23;13.82;;;9.93;;
22230;SDS011;11284;48.086;-1.652;2023-05-15T07:38:49;14.93;;;9.63;;
22230;SDS011;11284;48.086;-1.652;2023-05-15T07:41:15;12.82;;;9.45;;
22230;SDS011;11284;48.086;-1.652;2023-05-15T07:43:41;12.18;;;9.27;;
22230;SDS011;11284;48.086;-1.652;2023-05-15T07:46:07;13.85;;;8.88;;
22230;SDS011;11284;48.086;-1.652;2023-05-15T07:48:33;12.60;;;9.63;;
22230;SDS011;11284;48.086;-1.652;2023-05-15T07:50:59;12.35;;;8.98;;
22230;SDS011;11284;48.086;-1.652;2023-05-15T07:53:25;14.60;;;10.05;;
22230;SDS011;11284;48.086;-1.652;2023-05-15T07:55:51;12.68;;;10.25;;
22230;SDS011;11284;48.086;-1.652;2023-05-15T07:58:17;14.63;;;9.38;;
22230;SDS011;11284;48.086;-1.652;2023-05-15T08:00:43;11.55;;;9.27;;
22230;SDS011;11284;48.086;-1.652;2023-05-15T08:03:09;15.73;;;9.02;;
22230;SDS011;11284;48.086;-1.652;2023-05-15T08:05:36;11.32;;;7.90;;
22230;SDS011;11284;48.086;-1.652;2023-05-15T08:08:02;16.23;;;8.77;;
22230;SDS011;11284;48.086;-1.652;2023-05-15T08:10:28;14.32;;;9.02;;
22230;SDS011;11284;48.086;-1.652;2023-05-15T08:12:54;12.45;;;7.97;;
22230;SDS011;11284;48.086;-1.652;2023-05-15T08:15:20;12.45;;;8.73;;
22230;SDS011;11284;48.086;-1.652;2023-05-15T08:17:46;11.15;;;7.90;;
22230;SDS011;11284;48.086;-1.652;2023-05-15T08:20:12;11.88;;;8.60;;
22230;SDS011;11284;48.086;-1.652;2023-05-15T08:22:38;12.73;;;8.45;;
22230;SDS011;11284;48.086;-1.652;2023-05-15T08:25:04;10.85;;;8.65;;
22230;SDS011;11284;48.086;-1.652;2023-05-15T08:27:31;13.73;;;8.77;;
22230;SDS011;11284;48.086;-1.652;2023-05-15T08:29:57;10.80;;;8.05;;
22230;SDS011;11284;48.086;-1.652;2023-05-15T08:32:23;12.27;;;7.65;;
22230;SDS011;11284;48.086;-1.652;2023-05-15T08:34:49;12.65;;;8.35;;
22230;SDS011;11284;48.086;-1.652;2023-05-15T08:37:15;9.85;;;7.93;;
22230;SDS011;11284;48.086;-1.652;2023-05-15T08:39:41;8.70;;;6.60;;
22230;SDS011;11284;48.086;-1.652;2023-05-15T08:44:33;8.95;;;6.03;;
22230;SDS011;11284;48.086;-1.652;2023-05-15T08:47:00;11.52;;;6.57;;
22230;SDS011;11284;48.086;-1.652;2023-05-15T08:51:56;8.88;;;5.68;;
22230;SDS011;11284;48.086;-1.652;2023-05-15T08:54:22;10.30;;;6.05;;
22230;SDS011;11284;48.086;-1.652;2023-05-15T08:56:49;11.05;;;6.13;;
22230;SDS011;11284;48.086;-1.652;2023-05-15T08:59:15;12.98;;;7.35;;
22230;SDS011;11284;48.086;-1.652;2023-05-15T09:01:41;11.40;;;6.93;;
22230;SDS011;11284;48.086;-1.652;2023-05-15T09:04:07;11.88;;;6.82;;
22230;SDS011;11284;48.086;-1.652;2023-05-15T09:06:33;9.82;;;6.72;;
22230;SDS011;11284;48.086;-1.652;2023-05-15T09:09:00;9.88;;;6.47;;
22230;SDS011;11284;48.086;-1.652;2023-05-15T09:11:27;8.85;;;6.80;;
22230;SDS011;11284;48.086;-1.652;2023-05-15T09:13:56;9.43;;;6.57;;
22230;SDS011;11284;48.086;-1.652;2023-05-15T09:16:22;9.80;;;7.00;;
22230;SDS011;11284;48.086;-1.652;2023-05-15T09:18:48;10.00;;;6.70;;
22230;SDS011;11284;48.086;-1.652;2023-05-15T09:21:24;10.35;;;7.43;;
22230;SDS011;11284;48.086;-1.652;2023-05-15T09:23:51;10.05;;;6.85;;
22230;SDS011;11284;48.086;-1.652;2023-05-15T09:26:17;8.65;;;6.85;;
22230;SDS011;11284;48.086;-1.652;2023-05-15T09:28:43;10.93;;;6.22;;
22230;SDS011;11284;48.086;-1.652;2023-05-15T09:31:09;13.32;;;6.75;;
22230;SDS011;11284;48.086;-1.652;2023-05-15T09:33:36;12.25;;;6.78;;
22230;SDS011;11284;48.086;-1.652;2023-05-15T09:36:03;8.68;;;6.47;;
22230;SDS011;11284;48.086;-1.652;2023-05-15T09:38:32;10.30;;;6.60;;
22230;SDS011;11284;48.086;-1.652;2023-05-15T09:41:02;9.10;;;6.03;;
22230;SDS011;11284;48.086;-1.652;2023-05-15T09:43:28;8.63;;;6.07;;
22230;SDS011;11284;48.086;-1.652;2023-05-15T09:45:58;7.82;;;6.32;;
22230;SDS011;11284;48.086;-1.652;2023-05-15T09:48:24;8.85;;;6.20;;
22230;SDS011;11284;48.086;-1.652;2023-05-15T09:50:50;9.10;;;6.10;;
22230;SDS011;11284;48.086;-1.652;2023-05-15T09:53:16;8.70;;;6.13;;
22230;SDS011;11284;48.086;-1.652;2023-05-15T09:55:42;8.95;;;6.38;;
22230;SDS011;11284;48.086;-1.652;2023-05-15T09:58:10;7.38;;;5.85;;
22230;SDS011;11284;48.086;-1.652;2023-05-15T10:00:37;9.27;;;5.85;;
22230;SDS011;11284;48.086;-1.652;2023-05-15T10:03:03;9.50;;;6.20;;
22230;SDS011;11284;48.086;-1.652;2023-05-15T10:05:32;9.10;;;5.88;;
22230;SDS011;11284;48.086;-1.652;2023-05-15T10:07:59;7.47;;;5.50;;
22230;SDS011;11284;48.086;-1.652;2023-05-15T10:10:25;7.80;;;5.80;;
22230;SDS011;11284;48.086;-1.652;2023-05-15T10:12:55;7.95;;;5.70;;
22230;SDS011;11284;48.086;-1.652;2023-05-15T10:15:23;7.75;;;5.20;;
22230;SDS011;11284;48.086;-1.652;2023-05-15T10:17:51;8.02;;;5.95;;
22230;SDS011;11284;48.086;-1.652;2023-05-15T10:20:18;7.95;;;5.57;;
22230;SDS011;11284;48.086;-1.652;2023-05-15T10:22:47;7.95;;;5.65;;
22230;SDS011;11284;48.086;-1.652;2023-05-15T10:27:40;8.50;;;5.68;;
22230;SDS011;11284;48.086;-1.652;2023-05-15T10:30:06;8.43;;;5.90;;
22230;SDS011;11284;48.086;-1.652;2023-05-15T10:32:32;7.55;;;4.85;;
22230;SDS011;11284;48.086;-1.652;2023-05-15T10:34:59;4.57;;;2.83;;
22230;SDS011;11284;48.086;-1.652;2023-05-15T10:37:25;4.80;;;3.00;;
22230;SDS011;11284;48.086;-1.652;2023-05-15T10:39:52;4.97;;;2.60;;
22230;SDS011;11284;48.086;-1.652;2023-05-15T10:42:19;7.95;;;5.60;;
22230;SDS011;11284;48.086;-1.652;2023-05-15T10:44:46;7.85;;;5.18;;
22230;SDS011;11284;48.086;-1.652;2023-05-15T10:47:12;5.82;;;3.88;;
22230;SDS011;11284;48.086;-1.652;2023-05-15T10:49:39;5.53;;;2.53;;
22230;SDS011;11284;48.086;-1.652;2023-05-15T10:52:05;2.80;;;1.30;;
22230;SDS011;11284;48.086;-1.652;2023-05-15T10:54:31;2.63;;;1.02;;
22230;SDS011;11284;48.086;-1.652;2023-05-15T10:56:57;2.00;;;0.70;;
22230;SDS011;11284;48.086;-1.652;2023-05-15T10:59:29;2.45;;;0.57;;
22230;SDS011;11284;48.086;-1.652;2023-05-15T11:01:56;1.85;;;0.60;;
22230;SDS011;11284;48.086;-1.652;2023-05-15T11:04:22;2.25;;;0.70;;
22230;SDS011;11284;48.086;-1.652;2023-05-15T11:06:50;2.00;;;0.70;;
22230;SDS011;11284;48.086;-1.652;2023-05-15T11:09:36;2.30;;;0.82;;
22230;SDS011;11284;48.086;-1.652;2023-05-15T11:12:03;2.88;;;1.00;;
22230;SDS011;11284;48.086;-1.652;2023-05-15T11:14:30;3.00;;;1.00;;
22230;SDS011;11284;48.086;-1.652;2023-05-15T11:16:57;4.15;;;1.52;;
22230;SDS011;11284;48.086;-1.652;2023-05-15T11:19:24;3.95;;;1.50;;
22230;SDS011;11284;48.086;-1.652;2023-05-15T11:24:51;4.45;;;2.08;;
22230;SDS011;11284;48.086;-1.652;2023-05-15T11:27:25;4.53;;;2.25;;
22230;SDS011;11284;48.086;-1.652;2023-05-15T11:32:30;6.03;;;2.38;;
22230;SDS011;11284;48.086;-1.652;2023-05-15T11:35:00;5.38;;;2.20;;
22230;SDS011;11284;48.086;-1.652;2023-05-15T11:37:27;4.22;;;2.30;;
22230;SDS011;11284;48.086;-1.652;2023-05-15T11:39:53;4.85;;;2.30;;
22230;SDS011;11284;48.086;-1.652;2023-05-15T11:42:19;5.07;;;2.03;;
22230;SDS011;11284;48.086;-1.652;2023-05-15T11:44:45;5.13;;;2.22;;
22230;SDS011;11284;48.086;-1.652;2023-05-15T11:47:13;6.22;;;2.25;;
22230;SDS011;11284;48.086;-1.652;2023-05-15T11:49:39;4.35;;;2.00;;
22230;SDS011;11284;48.086;-1.652;2023-05-15T11:52:06;4.97;;;2.00;;
22230;SDS011;11284;48.086;-1.652;2023-05-15T11:54:32;5.38;;;2.20;;
22230;SDS011;11284;48.086;-1.652;2023-05-15T11:56:58;4.43;;;2.22;;
22230;SDS011;11284;48.086;-1.652;2023-05-15T11:59:25;3.60;;;2.15;;
22230;SDS011;11284;48.086;-1.652;2023-05-15T12:01:51;4.85;;;2.20;;
22230;SDS011;11284;48.086;-1.652;2023-05-15T12:04:18;6.82;;;2.60;;
22230;SDS011;11284;48.086;-1.652;2023-05-15T12:06:44;5.63;;;3.10;;
22230;SDS011;11284;48.086;-1.652;2023-05-15T12:09:20;6.60;;;3.50;;
22230;SDS011;11284;48.086;-1.652;2023-05-15T12:11:51;8.20;;;4.10;;
22230;SDS011;11284;48.086;-1.652;2023-05-15T12:14:24;7.57;;;4.03;;
22230;SDS011;11284;48.086;-1.652;2023-05-15T12:16:51;7.82;;;4.72;;
22230;SDS011;11284;48.086;-1.652;2023-05-15T12:19:17;8.25;;;4.90;;
22230;SDS011;11284;48.086;-1.652;2023-05-15T12:21:46;9.88;;;4.45;;
22230;SDS011;11284;48.086;-1.652;2023-05-15T12:24:12;8.15;;;5.10;;
22230;SDS011;11284;48.086;-1.652;2023-05-15T12:26:38;8.95;;;4.85;;
22230;SDS011;11284;48.086;-1.652;2023-05-15T12:29:04;9.13;;;4.75;;
22230;SDS011;11284;48.086;-1.652;2023-05-15T12:31:34;9.82;;;4.72;;
22230;SDS011;11284;48.086;-1.652;2023-05-15T12:34:00;11.05;;;5.20;;
22230;SDS011;11284;48.086;-1.652;2023-05-15T12:36:26;9.93;;;4.97;;
22230;SDS011;11284;48.086;-1.652;2023-05-15T12:38:56;11.93;;;5.47;;
22230;SDS011;11284;48.086;-1.652;2023-05-15T12:41:28;11.52;;;5.35;;
22230;SDS011;11284;48.086;-1.652;2023-05-15T12:43:54;11.32;;;5.10;;
22230;SDS011;11284;48.086;-1.652;2023-05-15T12:46:30;10.10;;;5.47;;
22230;SDS011;11284;48.086;-1.652;2023-05-15T12:48:59;10.82;;;5.57;;
22230;SDS011;11284;48.086;-1.652;2023-05-15T12:51:26;12.73;;;5.68;;
22230;SDS011;11284;48.086;-1.652;2023-05-15T12:53:54;9.70;;;5.47;;
22230;SDS011;11284;48.086;-1.652;2023-05-15T12:56:22;10.85;;;5.55;;
22230;SDS011;11284;48.086;-1.652;2023-05-15T12:58:49;10.65;;;5.57;;
22230;SDS011;11284;48.086;-1.652;2023-05-15T13:01:15;10.43;;;5.80;;
22230;SDS011;11284;48.086;-1.652;2023-05-15T13:03:42;10.25;;;5.35;;
22230;SDS011;11284;48.086;-1.652;2023-05-15T13:06:08;9.82;;;5.22;;
22230;SDS011;11284;48.086;-1.652;2023-05-15T13:08:41;9.90;;;5.47;;
22230;SDS011;11284;48.086;-1.652;2023-05-15T13:11:13;11.38;;;5.32;;
22230;SDS011;11284;48.086;-1.652;2023-05-15T13:13:46;10.32;;;5.30;;
22230;SDS011;11284;48.086;-1.652;2023-05-15T13:18:44;9.80;;;4.80;;
22230;SDS011;11284;48.086;-1.652;2023-05-15T13:21:10;8.65;;;4.97;;
22230;SDS011;11284;48.086;-1.652;2023-05-15T13:23:36;8.85;;;4.65;;
22230;SDS011;11284;48.086;-1.652;2023-05-15T13:26:02;10.07;;;5.47;;
22230;SDS011;11284;48.086;-1.652;2023-05-15T13:28:29;11.20;;;4.72;;
22230;SDS011;11284;48.086;-1.652;2023-05-15T13:30:55;11.15;;;5.22;;
22230;SDS011;11284;48.086;-1.652;2023-05-15T13:33:21;8.00;;;5.07;;
22230;SDS011;11284;48.086;-1.652;2023-05-15T13:35:47;10.30;;;5.45;;
22230;SDS011;11284;48.086;-1.652;2023-05-15T13:38:13;14.00;;;5.90;;
22230;SDS011;11284;48.086;-1.652;2023-05-15T13:40:39;11.80;;;5.50;;
22230;SDS011;11284;48.086;-1.652;2023-05-15T13:43:05;12.70;;;5.53;;
22230;SDS011;11284;48.086;-1.652;2023-05-15T13:45:31;13.43;;;5.53;;
22230;SDS011;11284;48.086;-1.652;2023-05-15T13:47:58;11.18;;;5.80;;
22230;SDS011;11284;48.086;-1.652;2023-05-15T13:50:24;11.40;;;5.85;;
22230;SDS011;11284;48.086;-1.652;2023-05-15T13:52:50;11.20;;;5.07;;
22230;SDS011;11284;48.086;-1.652;2023-05-15T13:55:18;11.93;;;5.40;;
22230;SDS011;11284;48.086;-1.652;2023-05-15T13:57:45;12.80;;;5.13;;
22230;SDS011;11284;48.086;-1.652;2023-05-15T14:00:11;11.48;;;5.55;;
22230;SDS011;11284;48.086;-1.652;2023-05-15T14:02:38;12.43;;;5.20;;
22230;SDS011;11284;48.086;-1.652;2023-05-15T14:05:04;14.40;;;5.47;;
22230;SDS011;11284;48.086;-1.652;2023-05-15T14:07:30;10.95;;;5.13;;
22230;SDS011;11284;48.086;-1.652;2023-05-15T14:09:56;12.43;;;4.90;;
22230;SDS011;11284;48.086;-1.652;2023-05-15T14:12:23;12.63;;;5.00;;
22230;SDS011;11284;48.086;-1.652;2023-05-15T14:14:49;11.93;;;5.40;;
22230;SDS011;11284;48.086;-1.652;2023-05-15T14:17:15;11.50;;;5.35;;
22230;SDS011;11284;48.086;-1.652;2023-05-15T14:19:42;14.90;;;5.70;;
22230;SDS011;11284;48.086;-1.652;2023-05-15T14:22:09;14.52;;;5.85;;
22230;SDS011;11284;48.086;-1.652;2023-05-15T14:24:35;10.80;;;5.20;;
22230;SDS011;11284;48.086;-1.652;2023-05-15T14:27:01;12.68;;;5.00;;
22230;SDS011;11284;48.086;-1.652;2023-05-15T14:29:27;11.25;;;5.22;;
22230;SDS011;11284;48.086;-1.652;2023-05-15T14:31:53;12.13;;;5.40;;
22230;SDS011;11284;48.086;-1.652;2023-05-15T14:34:19;16.30;;;4.50;;
22230;SDS011;11284;48.086;-1.652;2023-05-15T14:36:46;11.90;;;4.40;;
22230;SDS011;11284;48.086;-1.652;2023-05-15T14:39:16;12.45;;;4.75;;
22230;SDS011;11284;48.086;-1.652;2023-05-15T14:41:43;11.65;;;4.75;;
22230;SDS011;11284;48.086;-1.652;2023-05-15T14:44:09;10.75;;;4.85;;